sensor_id;sensor_type;location;lat;lon;timestamp;P1;durP1;ratioP1;P2;durP2;ratioP2
59649;SDS011;46162;57.568;25.814;2023-06-26T00:01:15;3.03;;;1.15;;
59649;SDS011;46162;57.568;25.814;2023-06-26T00:03:44;2.53;;;0.67;;
59649;SDS011;46162;57.568;25.814;2023-06-26T00:06:12;4.28;;;1.00;;
59649;SDS011;46162;57.568;25.814;2023-06-26T00:08:41;5.93;;;1.38;;
59649;SDS011;46162;57.568;25.814;2023-06-26T00:11:10;5.75;;;1.55;;
59649;SDS011;46162;57.568;25.814;2023-06-26T00:13:38;2.75;;;1.27;;
59649;SDS011;46162;57.568;25.814;2023-06-26T00:16:07;5.97;;;1.92;;
59649;SDS011;46162;57.568;25.814;2023-06-26T00:18:37;3.70;;;1.75;;
59649;SDS011;46162;57.568;25.814;2023-06-26T00:21:05;2.40;;;1.00;;
59649;SDS011;46162;57.568;25.814;2023-06-26T00:23:34;4.75;;;1.20;;
59649;SDS011;46162;57.568;25.814;2023-06-26T00:26:06;5.22;;;0.80;;
59649;SDS011;46162;57.568;25.814;2023-06-26T00:28:35;4.72;;;1.33;;
59649;SDS011;46162;57.568;25.814;2023-06-26T00:31:04;3.80;;;1.10;;
59649;SDS011;46162;57.568;25.814;2023-06-26T00:33:33;2.97;;;1.05;;
59649;SDS011;46162;57.568;25.814;2023-06-26T00:36:03;2.70;;;1.30;;
59649;SDS011;46162;57.568;25.814;2023-06-26T00:38:32;2.42;;;1.20;;
59649;SDS011;46162;57.568;25.814;2023-06-26T00:41:00;2.60;;;1.20;;
59649;SDS011;46162;57.568;25.814;2023-06-26T00:43:29;4.55;;;1.60;;
59649;SDS011;46162;57.568;25.814;2023-06-26T00:45:57;3.20;;;1.08;;
59649;SDS011;46162;57.568;25.814;2023-06-26T00:48:26;4.78;;;1.23;;
59649;SDS011;46162;57.568;25.814;2023-06-26T00:50:55;4.05;;;1.25;;
59649;SDS011;46162;57.568;25.814;2023-06-26T00:53:26;4.13;;;1.38;;
59649;SDS011;46162;57.568;25.814;2023-06-26T00:55:54;3.10;;;1.10;;
59649;SDS011;46162;57.568;25.814;2023-06-26T00:58:23;5.45;;;1.52;;
59649;SDS011;46162;57.568;25.814;2023-06-26T01:00:53;3.45;;;1.20;;
59649;SDS011;46162;57.568;25.814;2023-06-26T01:03:22;3.90;;;1.00;;
59649;SDS011;46162;57.568;25.814;2023-06-26T01:05:55;3.38;;;1.08;;
59649;SDS011;46162;57.568;25.814;2023-06-26T01:08:28;4.80;;;1.08;;
59649;SDS011;46162;57.568;25.814;2023-06-26T01:10:57;3.75;;;0.80;;
59649;SDS011;46162;57.568;25.814;2023-06-26T01:13:27;2.58;;;0.80;;
59649;SDS011;46162;57.568;25.814;2023-06-26T01:15:59;4.00;;;1.05;;
59649;SDS011;46162;57.568;25.814;2023-06-26T01:18:29;3.75;;;1.30;;
59649;SDS011;46162;57.568;25.814;2023-06-26T01:20:59;5.63;;;1.70;;
59649;SDS011;46162;57.568;25.814;2023-06-26T01:23:35;3.22;;;0.60;;
59649;SDS011;46162;57.568;25.814;2023-06-26T01:26:14;5.25;;;1.20;;
59649;SDS011;46162;57.568;25.814;2023-06-26T01:28:45;6.13;;;1.70;;
59649;SDS011;46162;57.568;25.814;2023-06-26T01:31:14;3.35;;;1.63;;
59649;SDS011;46162;57.568;25.814;2023-06-26T01:33:43;4.07;;;1.70;;
59649;SDS011;46162;57.568;25.814;2023-06-26T01:36:13;3.28;;;1.92;;
59649;SDS011;46162;57.568;25.814;2023-06-26T01:38:42;3.63;;;2.30;;
59649;SDS011;46162;57.568;25.814;2023-06-26T01:41:10;3.65;;;2.35;;
59649;SDS011;46162;57.568;25.814;2023-06-26T01:43:43;4.30;;;2.08;;
59649;SDS011;46162;57.568;25.814;2023-06-26T01:46:27;3.78;;;1.67;;
59649;SDS011;46162;57.568;25.814;2023-06-26T01:49:06;5.60;;;1.70;;
59649;SDS011;46162;57.568;25.814;2023-06-26T01:51:46;3.33;;;1.80;;
59649;SDS011;46162;57.568;25.814;2023-06-26T01:54:19;3.92;;;1.77;;
59649;SDS011;46162;57.568;25.814;2023-06-26T01:56:52;5.35;;;1.90;;
59649;SDS011;46162;57.568;25.814;2023-06-26T01:59:24;3.50;;;1.63;;
59649;SDS011;46162;57.568;25.814;2023-06-26T02:01:56;3.83;;;1.80;;
59649;SDS011;46162;57.568;25.814;2023-06-26T02:04:26;3.83;;;1.20;;
59649;SDS011;46162;57.568;25.814;2023-06-26T02:06:57;6.68;;;1.20;;
59649;SDS011;46162;57.568;25.814;2023-06-26T02:09:29;3.47;;;1.30;;
59649;SDS011;46162;57.568;25.814;2023-06-26T02:11:57;3.17;;;1.40;;
59649;SDS011;46162;57.568;25.814;2023-06-26T02:14:27;3.45;;;1.70;;
59649;SDS011;46162;57.568;25.814;2023-06-26T02:16:56;4.55;;;2.13;;
59649;SDS011;46162;57.568;25.814;2023-06-26T02:19:25;4.63;;;2.38;;
59649;SDS011;46162;57.568;25.814;2023-06-26T02:21:54;6.25;;;2.95;;
59649;SDS011;46162;57.568;25.814;2023-06-26T02:24:23;4.70;;;3.08;;
59649;SDS011;46162;57.568;25.814;2023-06-26T02:26:54;6.85;;;3.15;;
59649;SDS011;46162;57.568;25.814;2023-06-26T02:29:22;6.60;;;3.67;;
59649;SDS011;46162;57.568;25.814;2023-06-26T02:31:52;6.38;;;3.40;;
59649;SDS011;46162;57.568;25.814;2023-06-26T02:34:21;8.10;;;4.18;;
59649;SDS011;46162;57.568;25.814;2023-06-26T02:36:50;7.80;;;4.47;;
59649;SDS011;46162;57.568;25.814;2023-06-26T02:39:21;8.02;;;4.80;;
59649;SDS011;46162;57.568;25.814;2023-06-26T02:41:50;7.88;;;5.57;;
59649;SDS011;46162;57.568;25.814;2023-06-26T02:44:21;8.15;;;4.93;;
59649;SDS011;46162;57.568;25.814;2023-06-26T02:46:50;8.32;;;6.10;;
59649;SDS011;46162;57.568;25.814;2023-06-26T02:49:20;16.55;;;7.88;;
59649;SDS011;46162;57.568;25.814;2023-06-26T02:51:49;15.20;;;7.97;;
59649;SDS011;46162;57.568;25.814;2023-06-26T02:54:23;9.57;;;6.40;;
59649;SDS011;46162;57.568;25.814;2023-06-26T02:56:55;11.65;;;7.30;;
59649;SDS011;46162;57.568;25.814;2023-06-26T02:59:27;8.80;;;5.57;;
59649;SDS011;46162;57.568;25.814;2023-06-26T03:01:57;9.52;;;6.30;;
59649;SDS011;46162;57.568;25.814;2023-06-26T03:04:39;9.75;;;6.30;;
59649;SDS011;46162;57.568;25.814;2023-06-26T03:07:12;12.77;;;7.20;;
59649;SDS011;46162;57.568;25.814;2023-06-26T03:09:42;9.95;;;6.22;;
59649;SDS011;46162;57.568;25.814;2023-06-26T03:12:12;7.38;;;6.00;;
59649;SDS011;46162;57.568;25.814;2023-06-26T03:14:42;9.30;;;6.55;;
59649;SDS011;46162;57.568;25.814;2023-06-26T03:17:13;8.57;;;6.00;;
59649;SDS011;46162;57.568;25.814;2023-06-26T03:19:46;10.35;;;5.57;;
59649;SDS011;46162;57.568;25.814;2023-06-26T03:22:20;7.97;;;5.90;;
59649;SDS011;46162;57.568;25.814;2023-06-26T03:24:49;7.60;;;5.75;;
59649;SDS011;46162;57.568;25.814;2023-06-26T03:27:18;8.48;;;5.82;;
59649;SDS011;46162;57.568;25.814;2023-06-26T03:29:48;7.47;;;5.28;;
59649;SDS011;46162;57.568;25.814;2023-06-26T03:32:20;6.93;;;4.95;;
59649;SDS011;46162;57.568;25.814;2023-06-26T03:34:50;7.90;;;5.78;;
59649;SDS011;46162;57.568;25.814;2023-06-26T03:37:20;7.30;;;5.35;;
59649;SDS011;46162;57.568;25.814;2023-06-26T03:39:49;7.68;;;6.03;;
59649;SDS011;46162;57.568;25.814;2023-06-26T03:42:18;6.28;;;4.80;;
59649;SDS011;46162;57.568;25.814;2023-06-26T03:44:47;8.15;;;5.82;;
59649;SDS011;46162;57.568;25.814;2023-06-26T03:47:18;7.10;;;5.55;;
59649;SDS011;46162;57.568;25.814;2023-06-26T03:49:46;6.13;;;4.88;;
59649;SDS011;46162;57.568;25.814;2023-06-26T03:52:17;7.10;;;6.22;;
59649;SDS011;46162;57.568;25.814;2023-06-26T03:54:45;8.70;;;5.50;;
59649;SDS011;46162;57.568;25.814;2023-06-26T03:57:16;8.18;;;5.30;;
59649;SDS011;46162;57.568;25.814;2023-06-26T03:59:46;5.97;;;4.63;;
59649;SDS011;46162;57.568;25.814;2023-06-26T04:02:15;5.85;;;3.88;;
59649;SDS011;46162;57.568;25.814;2023-06-26T04:04:44;6.93;;;4.85;;
59649;SDS011;46162;57.568;25.814;2023-06-26T04:07:13;5.38;;;3.75;;
59649;SDS011;46162;57.568;25.814;2023-06-26T04:09:43;5.07;;;3.88;;
59649;SDS011;46162;57.568;25.814;2023-06-26T04:12:12;5.07;;;3.78;;
59649;SDS011;46162;57.568;25.814;2023-06-26T04:14:41;5.88;;;4.43;;
59649;SDS011;46162;57.568;25.814;2023-06-26T04:17:10;4.82;;;3.85;;
59649;SDS011;46162;57.568;25.814;2023-06-26T04:19:39;4.93;;;4.13;;
59649;SDS011;46162;57.568;25.814;2023-06-26T04:22:08;4.93;;;3.65;;
59649;SDS011;46162;57.568;25.814;2023-06-26T04:24:36;4.35;;;3.00;;
59649;SDS011;46162;57.568;25.814;2023-06-26T04:27:06;6.28;;;4.35;;
59649;SDS011;46162;57.568;25.814;2023-06-26T04:29:35;6.43;;;4.07;;
59649;SDS011;46162;57.568;25.814;2023-06-26T04:32:05;4.78;;;3.95;;
59649;SDS011;46162;57.568;25.814;2023-06-26T04:34:34;5.88;;;3.53;;
59649;SDS011;46162;57.568;25.814;2023-06-26T04:37:03;5.35;;;3.70;;
59649;SDS011;46162;57.568;25.814;2023-06-26T04:39:32;5.53;;;3.95;;
59649;SDS011;46162;57.568;25.814;2023-06-26T04:42:00;4.03;;;3.20;;
59649;SDS011;46162;57.568;25.814;2023-06-26T04:44:30;4.90;;;3.08;;
59649;SDS011;46162;57.568;25.814;2023-06-26T04:46:59;5.82;;;3.42;;
59649;SDS011;46162;57.568;25.814;2023-06-26T04:49:28;4.93;;;3.33;;
59649;SDS011;46162;57.568;25.814;2023-06-26T04:51:56;6.25;;;3.30;;
59649;SDS011;46162;57.568;25.814;2023-06-26T04:54:27;4.72;;;3.42;;
59649;SDS011;46162;57.568;25.814;2023-06-26T04:56:55;6.72;;;4.38;;
59649;SDS011;46162;57.568;25.814;2023-06-26T04:59:24;7.32;;;4.97;;
59649;SDS011;46162;57.568;25.814;2023-06-26T05:01:55;8.93;;;3.95;;
59649;SDS011;46162;57.568;25.814;2023-06-26T05:04:23;8.18;;;3.97;;
59649;SDS011;46162;57.568;25.814;2023-06-26T05:06:52;5.25;;;4.07;;
59649;SDS011;46162;57.568;25.814;2023-06-26T05:09:20;6.05;;;3.45;;
59649;SDS011;46162;57.568;25.814;2023-06-26T05:11:49;7.40;;;3.90;;
59649;SDS011;46162;57.568;25.814;2023-06-26T05:14:18;5.68;;;3.90;;
59649;SDS011;46162;57.568;25.814;2023-06-26T05:16:49;4.95;;;3.80;;
59649;SDS011;46162;57.568;25.814;2023-06-26T05:19:19;5.88;;;3.60;;
59649;SDS011;46162;57.568;25.814;2023-06-26T05:21:48;8.32;;;4.05;;
59649;SDS011;46162;57.568;25.814;2023-06-26T05:24:18;8.07;;;3.28;;
59649;SDS011;46162;57.568;25.814;2023-06-26T05:26:50;8.18;;;3.30;;
59649;SDS011;46162;57.568;25.814;2023-06-26T05:29:20;6.35;;;3.50;;
59649;SDS011;46162;57.568;25.814;2023-06-26T05:31:49;5.78;;;3.50;;
59649;SDS011;46162;57.568;25.814;2023-06-26T05:34:23;6.70;;;3.45;;
59649;SDS011;46162;57.568;25.814;2023-06-26T05:36:52;8.43;;;3.17;;
59649;SDS011;46162;57.568;25.814;2023-06-26T05:39:25;5.03;;;2.83;;
59649;SDS011;46162;57.568;25.814;2023-06-26T05:41:55;4.05;;;2.22;;
59649;SDS011;46162;57.568;25.814;2023-06-26T05:44:25;3.42;;;2.30;;
59649;SDS011;46162;57.568;25.814;2023-06-26T05:46:53;4.32;;;3.05;;
59649;SDS011;46162;57.568;25.814;2023-06-26T05:49:23;5.25;;;2.78;;
59649;SDS011;46162;57.568;25.814;2023-06-26T05:51:52;4.05;;;2.28;;
59649;SDS011;46162;57.568;25.814;2023-06-26T05:54:22;5.18;;;2.72;;
59649;SDS011;46162;57.568;25.814;2023-06-26T05:56:52;3.70;;;2.28;;
59649;SDS011;46162;57.568;25.814;2023-06-26T05:59:26;3.83;;;2.00;;
59649;SDS011;46162;57.568;25.814;2023-06-26T06:01:55;3.13;;;2.03;;
59649;SDS011;46162;57.568;25.814;2023-06-26T06:04:25;4.35;;;2.50;;
59649;SDS011;46162;57.568;25.814;2023-06-26T06:06:54;3.83;;;2.00;;
59649;SDS011;46162;57.568;25.814;2023-06-26T06:09:23;4.70;;;2.33;;
59649;SDS011;46162;57.568;25.814;2023-06-26T06:11:51;4.40;;;2.00;;
59649;SDS011;46162;57.568;25.814;2023-06-26T06:14:20;5.00;;;2.70;;
59649;SDS011;46162;57.568;25.814;2023-06-26T06:16:49;3.55;;;2.72;;
59649;SDS011;46162;57.568;25.814;2023-06-26T06:19:18;4.63;;;2.38;;
59649;SDS011;46162;57.568;25.814;2023-06-26T06:21:48;5.07;;;2.78;;
59649;SDS011;46162;57.568;25.814;2023-06-26T06:24:22;5.75;;;2.60;;
59649;SDS011;46162;57.568;25.814;2023-06-26T06:27:09;4.57;;;2.50;;
59649;SDS011;46162;57.568;25.814;2023-06-26T06:30:17;6.13;;;2.35;;
59649;SDS011;46162;57.568;25.814;2023-06-26T06:32:42;6.72;;;2.13;;
59649;SDS011;46162;57.568;25.814;2023-06-26T06:35:23;4.30;;;2.17;;
59649;SDS011;46162;57.568;25.814;2023-06-26T06:38:02;6.03;;;2.00;;
59649;SDS011;46162;57.568;25.814;2023-06-26T06:40:35;4.97;;;1.83;;
59649;SDS011;46162;57.568;25.814;2023-06-26T06:43:11;3.22;;;1.80;;
59649;SDS011;46162;57.568;25.814;2023-06-26T06:46:29;4.93;;;1.60;;
59649;SDS011;46162;57.568;25.814;2023-06-26T06:48:57;3.97;;;1.77;;
59649;SDS011;46162;57.568;25.814;2023-06-26T06:52:03;4.20;;;1.38;;
59649;SDS011;46162;57.568;25.814;2023-06-26T06:59:34;3.60;;;1.52;;
59649;SDS011;46162;57.568;25.814;2023-06-26T07:02:17;5.53;;;1.50;;
59649;SDS011;46162;57.568;25.814;2023-06-26T07:04:53;5.43;;;1.30;;
59649;SDS011;46162;57.568;25.814;2023-06-26T07:07:58;2.13;;;0.90;;
59649;SDS011;46162;57.568;25.814;2023-06-26T07:10:44;3.83;;;1.40;;
59649;SDS011;46162;57.568;25.814;2023-06-26T07:13:18;4.32;;;1.40;;
59649;SDS011;46162;57.568;25.814;2023-06-26T07:19:19;2.30;;;0.80;;
59649;SDS011;46162;57.568;25.814;2023-06-26T07:22:05;3.97;;;0.80;;
59649;SDS011;46162;57.568;25.814;2023-06-26T07:25:09;2.92;;;1.00;;
59649;SDS011;46162;57.568;25.814;2023-06-26T07:27:46;2.25;;;0.60;;
59649;SDS011;46162;57.568;25.814;2023-06-26T07:30:52;3.50;;;1.17;;
59649;SDS011;46162;57.568;25.814;2023-06-26T07:33:50;7.20;;;1.00;;
59649;SDS011;46162;57.568;25.814;2023-06-26T07:36:23;3.00;;;0.70;;
59649;SDS011;46162;57.568;25.814;2023-06-26T07:38:54;3.75;;;0.20;;
59649;SDS011;46162;57.568;25.814;2023-06-26T07:41:23;1.50;;;0.20;;
59649;SDS011;46162;57.568;25.814;2023-06-26T07:43:51;5.00;;;0.30;;
59649;SDS011;46162;57.568;25.814;2023-06-26T07:46:20;6.47;;;0.35;;
59649;SDS011;46162;57.568;25.814;2023-06-26T07:48:49;5.32;;;0.68;;
59649;SDS011;46162;57.568;25.814;2023-06-26T07:51:17;2.83;;;0.55;;
59649;SDS011;46162;57.568;25.814;2023-06-26T07:53:48;3.53;;;0.50;;
59649;SDS011;46162;57.568;25.814;2023-06-26T07:56:17;3.00;;;0.50;;
59649;SDS011;46162;57.568;25.814;2023-06-26T07:58:46;3.25;;;0.50;;
59649;SDS011;46162;57.568;25.814;2023-06-26T08:01:14;2.67;;;0.50;;
59649;SDS011;46162;57.568;25.814;2023-06-26T08:03:43;2.22;;;0.22;;
59649;SDS011;46162;57.568;25.814;2023-06-26T08:06:12;3.40;;;0.30;;
59649;SDS011;46162;57.568;25.814;2023-06-26T08:08:41;2.53;;;0.30;;
59649;SDS011;46162;57.568;25.814;2023-06-26T08:11:11;3.22;;;0.30;;
59649;SDS011;46162;57.568;25.814;2023-06-26T08:13:40;2.53;;;0.20;;
59649;SDS011;46162;57.568;25.814;2023-06-26T08:16:08;7.40;;;0.20;;
59649;SDS011;46162;57.568;25.814;2023-06-26T08:18:37;1.67;;;0.20;;
59649;SDS011;46162;57.568;25.814;2023-06-26T08:21:06;1.42;;;0.10;;
59649;SDS011;46162;57.568;25.814;2023-06-26T08:23:36;1.23;;;0.10;;
59649;SDS011;46162;57.568;25.814;2023-06-26T08:26:05;2.97;;;0.20;;
59649;SDS011;46162;57.568;25.814;2023-06-26T08:28:35;3.58;;;0.20;;
59649;SDS011;46162;57.568;25.814;2023-06-26T08:31:04;2.92;;;0.30;;
59649;SDS011;46162;57.568;25.814;2023-06-26T08:33:32;2.50;;;0.32;;
59649;SDS011;46162;57.568;25.814;2023-06-26T08:36:01;2.80;;;0.20;;
59649;SDS011;46162;57.568;25.814;2023-06-26T08:38:30;2.63;;;0.17;;
59649;SDS011;46162;57.568;25.814;2023-06-26T08:40:59;2.03;;;0.13;;
59649;SDS011;46162;57.568;25.814;2023-06-26T08:43:28;2.78;;;0.20;;
59649;SDS011;46162;57.568;25.814;2023-06-26T08:45:58;1.85;;;0.20;;
59649;SDS011;46162;57.568;25.814;2023-06-26T08:48:28;2.75;;;0.20;;
59649;SDS011;46162;57.568;25.814;2023-06-26T08:51:01;1.40;;;0.20;;
59649;SDS011;46162;57.568;25.814;2023-06-26T08:53:33;2.05;;;0.20;;
59649;SDS011;46162;57.568;25.814;2023-06-26T08:56:08;2.20;;;0.20;;
59649;SDS011;46162;57.568;25.814;2023-06-26T09:01:11;3.92;;;0.20;;
59649;SDS011;46162;57.568;25.814;2023-06-26T09:03:40;1.40;;;0.10;;
59649;SDS011;46162;57.568;25.814;2023-06-26T09:06:09;1.80;;;0.20;;
59649;SDS011;46162;57.568;25.814;2023-06-26T09:08:38;1.42;;;0.30;;
59649;SDS011;46162;57.568;25.814;2023-06-26T09:11:07;1.75;;;0.22;;
59649;SDS011;46162;57.568;25.814;2023-06-26T09:13:36;1.10;;;0.20;;
59649;SDS011;46162;57.568;25.814;2023-06-26T09:16:06;1.90;;;0.20;;
59649;SDS011;46162;57.568;25.814;2023-06-26T09:21:06;1.23;;;0.20;;
59649;SDS011;46162;57.568;25.814;2023-06-26T09:23:35;2.47;;;0.20;;
59649;SDS011;46162;57.568;25.814;2023-06-26T09:26:05;2.65;;;0.10;;
59649;SDS011;46162;57.568;25.814;2023-06-26T09:28:34;3.10;;;0.30;;
59649;SDS011;46162;57.568;25.814;2023-06-26T09:31:04;2.08;;;0.22;;
59649;SDS011;46162;57.568;25.814;2023-06-26T09:33:35;2.10;;;0.30;;
59649;SDS011;46162;57.568;25.814;2023-06-26T09:36:07;6.68;;;0.25;;
59649;SDS011;46162;57.568;25.814;2023-06-26T09:38:37;3.13;;;0.20;;
59649;SDS011;46162;57.568;25.814;2023-06-26T09:41:06;1.73;;;0.20;;
59649;SDS011;46162;57.568;25.814;2023-06-26T09:43:35;11.23;;;0.32;;
59649;SDS011;46162;57.568;25.814;2023-06-26T09:46:26;5.03;;;0.30;;
59649;SDS011;46162;57.568;25.814;2023-06-26T09:52:15;1.90;;;0.20;;
59649;SDS011;46162;57.568;25.814;2023-06-26T09:57:30;1.52;;;0.20;;
59649;SDS011;46162;57.568;25.814;2023-06-26T09:59:16;4.78;;;0.28;;
59649;SDS011;46162;57.568;25.814;2023-06-26T10:02:52;4.05;;;0.30;;
59649;SDS011;46162;57.568;25.814;2023-06-26T10:05:26;2.75;;;0.20;;
59649;SDS011;46162;57.568;25.814;2023-06-26T10:11:51;2.13;;;0.20;;
59649;SDS011;46162;57.568;25.814;2023-06-26T10:14:33;3.35;;;0.38;;
59649;SDS011;46162;57.568;25.814;2023-06-26T10:17:07;2.78;;;0.20;;
59649;SDS011;46162;57.568;25.814;2023-06-26T10:19:41;1.60;;;0.20;;
59649;SDS011;46162;57.568;25.814;2023-06-26T10:22:24;1.98;;;0.22;;
59649;SDS011;46162;57.568;25.814;2023-06-26T10:28:24;2.42;;;0.20;;
59649;SDS011;46162;57.568;25.814;2023-06-26T10:30:57;3.63;;;0.20;;
59649;SDS011;46162;57.568;25.814;2023-06-26T10:33:30;1.80;;;0.10;;
59649;SDS011;46162;57.568;25.814;2023-06-26T10:36:15;2.28;;;0.25;;
59649;SDS011;46162;57.568;25.814;2023-06-26T10:38:51;1.73;;;0.20;;
59649;SDS011;46162;57.568;25.814;2023-06-26T10:41:21;1.67;;;0.20;;
59649;SDS011;46162;57.568;25.814;2023-06-26T10:43:51;5.57;;;0.20;;
59649;SDS011;46162;57.568;25.814;2023-06-26T10:46:19;2.50;;;0.20;;
59649;SDS011;46162;57.568;25.814;2023-06-26T10:48:56;1.75;;;0.10;;
59649;SDS011;46162;57.568;25.814;2023-06-26T10:51:26;1.42;;;0.20;;
59649;SDS011;46162;57.568;25.814;2023-06-26T10:53:56;0.85;;;0.10;;
59649;SDS011;46162;57.568;25.814;2023-06-26T10:56:41;1.80;;;0.10;;
59649;SDS011;46162;57.568;25.814;2023-06-26T10:59:15;1.40;;;0.10;;
59649;SDS011;46162;57.568;25.814;2023-06-26T11:01:46;2.38;;;0.20;;
59649;SDS011;46162;57.568;25.814;2023-06-26T11:05:13;5.95;;;0.22;;
59649;SDS011;46162;57.568;25.814;2023-06-26T11:10:50;2.55;;;0.20;;
59649;SDS011;46162;57.568;25.814;2023-06-26T11:13:21;1.83;;;0.20;;
59649;SDS011;46162;57.568;25.814;2023-06-26T11:15:50;4.32;;;0.20;;
59649;SDS011;46162;57.568;25.814;2023-06-26T11:18:18;4.15;;;0.20;;
59649;SDS011;46162;57.568;25.814;2023-06-26T11:20:47;2.30;;;0.20;;
59649;SDS011;46162;57.568;25.814;2023-06-26T11:23:16;1.52;;;0.20;;
59649;SDS011;46162;57.568;25.814;2023-06-26T11:25:52;1.10;;;0.20;;
59649;SDS011;46162;57.568;25.814;2023-06-26T11:28:23;3.85;;;0.20;;
59649;SDS011;46162;57.568;25.814;2023-06-26T11:30:52;3.85;;;0.28;;
59649;SDS011;46162;57.568;25.814;2023-06-26T11:33:26;2.60;;;0.43;;
59649;SDS011;46162;57.568;25.814;2023-06-26T11:35:55;3.83;;;0.20;;
59649;SDS011;46162;57.568;25.814;2023-06-26T11:38:23;1.75;;;0.30;;
59649;SDS011;46162;57.568;25.814;2023-06-26T11:40:54;8.82;;;0.47;;
59649;SDS011;46162;57.568;25.814;2023-06-26T11:43:24;6.60;;;0.22;;
59649;SDS011;46162;57.568;25.814;2023-06-26T11:45:52;2.83;;;0.10;;
59649;SDS011;46162;57.568;25.814;2023-06-26T11:48:21;1.55;;;0.10;;
59649;SDS011;46162;57.568;25.814;2023-06-26T11:50:50;1.40;;;0.20;;
59649;SDS011;46162;57.568;25.814;2023-06-26T11:53:19;5.95;;;0.20;;
59649;SDS011;46162;57.568;25.814;2023-06-26T11:55:48;3.67;;;0.10;;
59649;SDS011;46162;57.568;25.814;2023-06-26T11:58:18;2.70;;;0.30;;
59649;SDS011;46162;57.568;25.814;2023-06-26T12:00:47;3.13;;;0.20;;
59649;SDS011;46162;57.568;25.814;2023-06-26T12:03:16;2.95;;;0.10;;
59649;SDS011;46162;57.568;25.814;2023-06-26T12:05:45;1.67;;;0.20;;
59649;SDS011;46162;57.568;25.814;2023-06-26T12:08:14;4.95;;;0.40;;
59649;SDS011;46162;57.568;25.814;2023-06-26T12:10:43;11.48;;;0.40;;
59649;SDS011;46162;57.568;25.814;2023-06-26T12:13:13;3.95;;;0.40;;
59649;SDS011;46162;57.568;25.814;2023-06-26T12:15:43;6.70;;;0.30;;
59649;SDS011;46162;57.568;25.814;2023-06-26T12:18:12;3.17;;;0.10;;
59649;SDS011;46162;57.568;25.814;2023-06-26T12:20:41;1.42;;;0.15;;
59649;SDS011;46162;57.568;25.814;2023-06-26T12:23:12;3.28;;;0.20;;
59649;SDS011;46162;57.568;25.814;2023-06-26T12:25:41;2.55;;;0.38;;
59649;SDS011;46162;57.568;25.814;2023-06-26T12:28:16;1.98;;;0.22;;
59649;SDS011;46162;57.568;25.814;2023-06-26T12:30:47;2.13;;;0.30;;
59649;SDS011;46162;57.568;25.814;2023-06-26T12:33:31;3.22;;;0.30;;
59649;SDS011;46162;57.568;25.814;2023-06-26T12:36:00;3.05;;;0.20;;
59649;SDS011;46162;57.568;25.814;2023-06-26T12:38:32;2.85;;;0.20;;
59649;SDS011;46162;57.568;25.814;2023-06-26T12:41:01;2.83;;;0.30;;
59649;SDS011;46162;57.568;25.814;2023-06-26T12:43:31;2.60;;;0.40;;
59649;SDS011;46162;57.568;25.814;2023-06-26T12:46:02;2.87;;;0.47;;
59649;SDS011;46162;57.568;25.814;2023-06-26T12:48:37;4.47;;;0.57;;
59649;SDS011;46162;57.568;25.814;2023-06-26T12:51:10;4.95;;;0.40;;
59649;SDS011;46162;57.568;25.814;2023-06-26T12:53:40;3.30;;;0.30;;
59649;SDS011;46162;57.568;25.814;2023-06-26T12:56:09;3.67;;;0.40;;
59649;SDS011;46162;57.568;25.814;2023-06-26T12:58:38;3.05;;;0.22;;
59649;SDS011;46162;57.568;25.814;2023-06-26T13:01:08;3.33;;;0.40;;
59649;SDS011;46162;57.568;25.814;2023-06-26T13:03:41;3.72;;;0.30;;
59649;SDS011;46162;57.568;25.814;2023-06-26T13:06:10;2.40;;;0.25;;
59649;SDS011;46162;57.568;25.814;2023-06-26T13:11:09;6.93;;;0.30;;
59649;SDS011;46162;57.568;25.814;2023-06-26T13:13:38;6.00;;;0.20;;
59649;SDS011;46162;57.568;25.814;2023-06-26T13:16:08;2.20;;;0.20;;
59649;SDS011;46162;57.568;25.814;2023-06-26T13:18:37;2.22;;;0.20;;
59649;SDS011;46162;57.568;25.814;2023-06-26T13:21:05;2.13;;;0.22;;
59649;SDS011;46162;57.568;25.814;2023-06-26T13:23:34;6.07;;;0.35;;
59649;SDS011;46162;57.568;25.814;2023-06-26T13:26:03;4.00;;;0.50;;
59649;SDS011;46162;57.568;25.814;2023-06-26T13:28:32;9.70;;;0.87;;
59649;SDS011;46162;57.568;25.814;2023-06-26T13:31:01;2.05;;;0.40;;
59649;SDS011;46162;57.568;25.814;2023-06-26T13:33:32;4.72;;;0.70;;
59649;SDS011;46162;57.568;25.814;2023-06-26T13:36:00;3.45;;;0.70;;
59649;SDS011;46162;57.568;25.814;2023-06-26T13:38:32;2.85;;;0.50;;
59649;SDS011;46162;57.568;25.814;2023-06-26T13:41:01;11.38;;;0.70;;
59649;SDS011;46162;57.568;25.814;2023-06-26T13:43:30;32.50;;;1.20;;
59649;SDS011;46162;57.568;25.814;2023-06-26T13:45:59;2.13;;;0.40;;
59649;SDS011;46162;57.568;25.814;2023-06-26T13:48:29;1.75;;;0.40;;
59649;SDS011;46162;57.568;25.814;2023-06-26T13:50:59;1.85;;;0.30;;
59649;SDS011;46162;57.568;25.814;2023-06-26T13:53:28;4.43;;;0.40;;
59649;SDS011;46162;57.568;25.814;2023-06-26T13:56:00;2.65;;;0.60;;
59649;SDS011;46162;57.568;25.814;2023-06-26T13:58:28;9.85;;;0.50;;
59649;SDS011;46162;57.568;25.814;2023-06-26T14:00:59;2.25;;;0.57;;
59649;SDS011;46162;57.568;25.814;2023-06-26T14:03:27;3.45;;;0.50;;
59649;SDS011;46162;57.568;25.814;2023-06-26T14:05:56;2.50;;;0.60;;
59649;SDS011;46162;57.568;25.814;2023-06-26T14:08:26;2.33;;;0.43;;
59649;SDS011;46162;57.568;25.814;2023-06-26T14:10:55;5.07;;;0.30;;
59649;SDS011;46162;57.568;25.814;2023-06-26T14:13:23;3.65;;;0.50;;
59649;SDS011;46162;57.568;25.814;2023-06-26T14:15:52;2.30;;;0.30;;
59649;SDS011;46162;57.568;25.814;2023-06-26T14:18:21;2.10;;;0.22;;
59649;SDS011;46162;57.568;25.814;2023-06-26T14:20:51;3.20;;;0.20;;
59649;SDS011;46162;57.568;25.814;2023-06-26T14:23:20;1.92;;;0.20;;
59649;SDS011;46162;57.568;25.814;2023-06-26T14:25:50;2.97;;;0.52;;
59649;SDS011;46162;57.568;25.814;2023-06-26T14:28:19;2.30;;;0.30;;
59649;SDS011;46162;57.568;25.814;2023-06-26T14:30:47;3.85;;;0.40;;
59649;SDS011;46162;57.568;25.814;2023-06-26T14:33:16;4.45;;;0.50;;
59649;SDS011;46162;57.568;25.814;2023-06-26T14:35:45;4.90;;;0.30;;
59649;SDS011;46162;57.568;25.814;2023-06-26T14:38:13;4.97;;;0.57;;
59649;SDS011;46162;57.568;25.814;2023-06-26T14:40:42;3.03;;;0.30;;
59649;SDS011;46162;57.568;25.814;2023-06-26T14:43:13;2.45;;;0.28;;
59649;SDS011;46162;57.568;25.814;2023-06-26T14:45:42;2.88;;;0.30;;
59649;SDS011;46162;57.568;25.814;2023-06-26T14:48:11;4.78;;;0.40;;
59649;SDS011;46162;57.568;25.814;2023-06-26T14:50:40;7.05;;;0.50;;
59649;SDS011;46162;57.568;25.814;2023-06-26T14:53:09;15.68;;;0.60;;
59649;SDS011;46162;57.568;25.814;2023-06-26T14:55:37;8.40;;;0.57;;
59649;SDS011;46162;57.568;25.814;2023-06-26T14:58:06;7.10;;;0.30;;
59649;SDS011;46162;57.568;25.814;2023-06-26T15:00:36;72.65;;;2.78;;
59649;SDS011;46162;57.568;25.814;2023-06-26T15:05:34;18.73;;;1.80;;
59649;SDS011;46162;57.568;25.814;2023-06-26T15:08:02;30.08;;;2.28;;
59649;SDS011;46162;57.568;25.814;2023-06-26T15:10:31;13.30;;;1.67;;
59649;SDS011;46162;57.568;25.814;2023-06-26T15:13:00;19.75;;;1.88;;
59649;SDS011;46162;57.568;25.814;2023-06-26T15:15:28;5.70;;;0.90;;
59649;SDS011;46162;57.568;25.814;2023-06-26T15:17:59;6.05;;;0.98;;
59649;SDS011;46162;57.568;25.814;2023-06-26T15:20:28;6.22;;;1.00;;
59649;SDS011;46162;57.568;25.814;2023-06-26T15:22:56;4.22;;;0.77;;
59649;SDS011;46162;57.568;25.814;2023-06-26T15:25:25;3.47;;;0.75;;
59649;SDS011;46162;57.568;25.814;2023-06-26T15:27:55;4.75;;;0.93;;
59649;SDS011;46162;57.568;25.814;2023-06-26T15:30:23;2.28;;;0.50;;
59649;SDS011;46162;57.568;25.814;2023-06-26T15:32:52;4.47;;;1.02;;